sensor_id;sensor_type;location;lat;lon;timestamp;P1;durP1;ratioP1;P2;durP2;ratioP2
29402;SDS011;16382;59.942;30.472;2023-04-29T00:00:09;6.18;;;4.15;;
29402;SDS011;16382;59.942;30.472;2023-04-29T00:02:39;8.60;;;4.82;;
29402;SDS011;16382;59.942;30.472;2023-04-29T00:05:07;8.45;;;4.40;;
29402;SDS011;16382;59.942;30.472;2023-04-29T00:07:35;7.85;;;4.20;;
29402;SDS011;16382;59.942;30.472;2023-04-29T00:10:02;8.13;;;4.70;;
29402;SDS011;16382;59.942;30.472;2023-04-29T00:12:32;6.32;;;3.95;;
29402;SDS011;16382;59.942;30.472;2023-04-29T00:15:00;10.30;;;4.72;;
29402;SDS011;16382;59.942;30.472;2023-04-29T00:17:32;9.43;;;4.30;;
29402;SDS011;16382;59.942;30.472;2023-04-29T00:19:59;11.48;;;4.35;;
29402;SDS011;16382;59.942;30.472;2023-04-29T00:22:29;14.98;;;5.63;;
29402;SDS011;16382;59.942;30.472;2023-04-29T00:24:56;13.23;;;4.70;;
29402;SDS011;16382;59.942;30.472;2023-04-29T00:27:24;15.23;;;5.00;;
29402;SDS011;16382;59.942;30.472;2023-04-29T00:29:53;12.60;;;5.68;;
29402;SDS011;16382;59.942;30.472;2023-04-29T00:32:21;10.13;;;3.90;;
29402;SDS011;16382;59.942;30.472;2023-04-29T00:34:48;20.23;;;4.85;;
29402;SDS011;16382;59.942;30.472;2023-04-29T00:37:16;9.38;;;4.43;;
29402;SDS011;16382;59.942;30.472;2023-04-29T00:39:43;9.77;;;4.57;;
29402;SDS011;16382;59.942;30.472;2023-04-29T00:42:11;6.95;;;4.60;;
29402;SDS011;16382;59.942;30.472;2023-04-29T00:44:38;10.43;;;5.90;;
29402;SDS011;16382;59.942;30.472;2023-04-29T00:47:07;13.38;;;6.03;;
29402;SDS011;16382;59.942;30.472;2023-04-29T00:49:36;18.38;;;7.10;;
29402;SDS011;16382;59.942;30.472;2023-04-29T00:52:04;18.67;;;7.82;;
29402;SDS011;16382;59.942;30.472;2023-04-29T00:54:32;16.45;;;8.10;;
29402;SDS011;16382;59.942;30.472;2023-04-29T00:57:00;17.70;;;7.28;;
29402;SDS011;16382;59.942;30.472;2023-04-29T00:59:31;14.50;;;7.65;;
29402;SDS011;16382;59.942;30.472;2023-04-29T01:01:59;25.88;;;9.65;;
29402;SDS011;16382;59.942;30.472;2023-04-29T01:04:29;12.82;;;5.13;;
29402;SDS011;16382;59.942;30.472;2023-04-29T01:06:58;13.10;;;4.65;;
29402;SDS011;16382;59.942;30.472;2023-04-29T01:09:36;7.97;;;4.63;;
29402;SDS011;16382;59.942;30.472;2023-04-29T01:12:22;8.15;;;3.13;;
29402;SDS011;16382;59.942;30.472;2023-04-29T01:14:59;6.40;;;3.10;;
29402;SDS011;16382;59.942;30.472;2023-04-29T01:17:31;6.45;;;2.40;;
29402;SDS011;16382;59.942;30.472;2023-04-29T01:20:08;5.68;;;2.20;;
29402;SDS011;16382;59.942;30.472;2023-04-29T01:22:35;3.97;;;2.25;;
29402;SDS011;16382;59.942;30.472;2023-04-29T01:25:06;10.20;;;2.42;;
29402;SDS011;16382;59.942;30.472;2023-04-29T01:27:55;6.05;;;2.15;;
29402;SDS011;16382;59.942;30.472;2023-04-29T01:30:33;2.55;;;1.92;;
29402;SDS011;16382;59.942;30.472;2023-04-29T01:33:09;10.13;;;3.08;;
29402;SDS011;16382;59.942;30.472;2023-04-29T01:35:49;2.97;;;1.70;;
29402;SDS011;16382;59.942;30.472;2023-04-29T01:38:31;2.50;;;1.77;;
29402;SDS011;16382;59.942;30.472;2023-04-29T01:41:08;3.95;;;2.22;;
29402;SDS011;16382;59.942;30.472;2023-04-29T01:43:45;7.60;;;1.88;;
29402;SDS011;16382;59.942;30.472;2023-04-29T01:46:20;3.97;;;1.85;;
29402;SDS011;16382;59.942;30.472;2023-04-29T01:48:51;2.70;;;1.98;;
29402;SDS011;16382;59.942;30.472;2023-04-29T01:51:19;7.68;;;2.17;;
29402;SDS011;16382;59.942;30.472;2023-04-29T01:53:47;3.10;;;1.70;;
29402;SDS011;16382;59.942;30.472;2023-04-29T01:56:18;3.15;;;1.70;;
29402;SDS011;16382;59.942;30.472;2023-04-29T01:58:57;5.40;;;2.00;;
29402;SDS011;16382;59.942;30.472;2023-04-29T02:01:57;4.63;;;2.08;;
29402;SDS011;16382;59.942;30.472;2023-04-29T02:04:25;3.42;;;1.80;;
29402;SDS011;16382;59.942;30.472;2023-04-29T02:06:53;3.15;;;1.67;;
29402;SDS011;16382;59.942;30.472;2023-04-29T02:09:21;4.35;;;2.25;;
29402;SDS011;16382;59.942;30.472;2023-04-29T02:11:54;3.40;;;1.67;;
29402;SDS011;16382;59.942;30.472;2023-04-29T02:14:22;2.33;;;1.80;;
29402;SDS011;16382;59.942;30.472;2023-04-29T02:16:51;4.20;;;2.03;;
29402;SDS011;16382;59.942;30.472;2023-04-29T02:19:19;2.78;;;2.10;;
29402;SDS011;16382;59.942;30.472;2023-04-29T02:21:51;2.72;;;1.88;;
29402;SDS011;16382;59.942;30.472;2023-04-29T02:24:18;2.60;;;2.00;;
29402;SDS011;16382;59.942;30.472;2023-04-29T02:26:46;4.75;;;1.67;;
29402;SDS011;16382;59.942;30.472;2023-04-29T02:29:15;3.75;;;2.00;;
29402;SDS011;16382;59.942;30.472;2023-04-29T02:31:43;4.03;;;1.67;;
29402;SDS011;16382;59.942;30.472;2023-04-29T02:34:11;5.10;;;2.40;;
29402;SDS011;16382;59.942;30.472;2023-04-29T02:36:38;1.95;;;1.63;;
29402;SDS011;16382;59.942;30.472;2023-04-29T02:39:05;2.22;;;1.90;;
29402;SDS011;16382;59.942;30.472;2023-04-29T02:41:33;1.73;;;1.50;;
29402;SDS011;16382;59.942;30.472;2023-04-29T02:44:01;2.92;;;1.63;;
29402;SDS011;16382;59.942;30.472;2023-04-29T02:46:29;2.50;;;1.50;;
29402;SDS011;16382;59.942;30.472;2023-04-29T02:48:58;2.13;;;1.50;;
29402;SDS011;16382;59.942;30.472;2023-04-29T02:51:25;1.20;;;1.10;;
29402;SDS011;16382;59.942;30.472;2023-04-29T02:53:53;3.47;;;1.25;;
29402;SDS011;16382;59.942;30.472;2023-04-29T02:56:21;3.40;;;1.65;;
29402;SDS011;16382;59.942;30.472;2023-04-29T02:58:48;1.95;;;1.50;;
29402;SDS011;16382;59.942;30.472;2023-04-29T03:01:16;3.83;;;1.50;;
29402;SDS011;16382;59.942;30.472;2023-04-29T03:03:44;4.35;;;1.88;;
29402;SDS011;16382;59.942;30.472;2023-04-29T03:06:14;3.13;;;1.85;;
29402;SDS011;16382;59.942;30.472;2023-04-29T03:08:41;2.15;;;1.83;;
29402;SDS011;16382;59.942;30.472;2023-04-29T03:11:09;2.75;;;1.70;;
29402;SDS011;16382;59.942;30.472;2023-04-29T03:13:37;3.47;;;1.83;;
29402;SDS011;16382;59.942;30.472;2023-04-29T03:16:05;5.15;;;1.50;;
29402;SDS011;16382;59.942;30.472;2023-04-29T03:18:33;2.92;;;1.48;;
29402;SDS011;16382;59.942;30.472;2023-04-29T03:21:02;4.95;;;1.80;;
29402;SDS011;16382;59.942;30.472;2023-04-29T03:23:29;4.22;;;1.70;;
29402;SDS011;16382;59.942;30.472;2023-04-29T03:25:57;2.60;;;1.70;;
29402;SDS011;16382;59.942;30.472;2023-04-29T03:28:25;1.15;;;1.05;;
29402;SDS011;16382;59.942;30.472;2023-04-29T03:30:52;2.08;;;1.20;;
29402;SDS011;16382;59.942;30.472;2023-04-29T03:33:21;1.88;;;1.38;;
29402;SDS011;16382;59.942;30.472;2023-04-29T03:35:49;1.98;;;1.30;;
29402;SDS011;16382;59.942;30.472;2023-04-29T03:38:17;5.20;;;1.95;;
29402;SDS011;16382;59.942;30.472;2023-04-29T03:40:47;2.92;;;1.50;;
29402;SDS011;16382;59.942;30.472;2023-04-29T03:43:16;3.40;;;1.40;;
29402;SDS011;16382;59.942;30.472;2023-04-29T03:45:43;3.05;;;1.35;;
29402;SDS011;16382;59.942;30.472;2023-04-29T03:48:15;3.27;;;0.90;;
29402;SDS011;16382;59.942;30.472;2023-04-29T03:50:42;1.48;;;1.08;;
29402;SDS011;16382;59.942;30.472;2023-04-29T03:53:10;5.22;;;1.48;;
29402;SDS011;16382;59.942;30.472;2023-04-29T03:55:39;1.80;;;1.20;;
29402;SDS011;16382;59.942;30.472;2023-04-29T03:58:08;1.40;;;1.25;;
29402;SDS011;16382;59.942;30.472;2023-04-29T04:00:35;2.33;;;1.00;;
29402;SDS011;16382;59.942;30.472;2023-04-29T04:03:07;1.35;;;1.10;;
29402;SDS011;16382;59.942;30.472;2023-04-29T04:05:37;1.25;;;1.15;;
29402;SDS011;16382;59.942;30.472;2023-04-29T04:08:10;4.43;;;1.20;;
29402;SDS011;16382;59.942;30.472;2023-04-29T04:10:50;3.10;;;1.45;;
29402;SDS011;16382;59.942;30.472;2023-04-29T04:13:40;15.23;;;1.40;;
29402;SDS011;16382;59.942;30.472;2023-04-29T04:16:08;4.72;;;1.33;;
29402;SDS011;16382;59.942;30.472;2023-04-29T04:18:36;5.28;;;1.30;;
29402;SDS011;16382;59.942;30.472;2023-04-29T04:21:04;1.83;;;1.33;;
29402;SDS011;16382;59.942;30.472;2023-04-29T04:23:33;1.60;;;0.73;;
29402;SDS011;16382;59.942;30.472;2023-04-29T04:29:07;1.35;;;0.70;;
29402;SDS011;16382;59.942;30.472;2023-04-29T04:32:02;1.65;;;1.55;;
29402;SDS011;16382;59.942;30.472;2023-04-29T04:34:31;1.55;;;0.63;;
29402;SDS011;16382;59.942;30.472;2023-04-29T04:37:00;0.80;;;0.80;;
29402;SDS011;16382;59.942;30.472;2023-04-29T04:39:29;2.13;;;0.70;;
29402;SDS011;16382;59.942;30.472;2023-04-29T04:41:58;1.35;;;0.93;;
29402;SDS011;16382;59.942;30.472;2023-04-29T04:44:30;1.45;;;1.00;;
29402;SDS011;16382;59.942;30.472;2023-04-29T04:47:06;0.70;;;0.65;;
29402;SDS011;16382;59.942;30.472;2023-04-29T04:49:59;1.80;;;1.20;;
29402;SDS011;16382;59.942;30.472;2023-04-29T04:52:29;1.00;;;0.95;;
29402;SDS011;16382;59.942;30.472;2023-04-29T04:55:12;2.03;;;0.90;;
29402;SDS011;16382;59.942;30.472;2023-04-29T04:57:47;2.63;;;1.20;;
29402;SDS011;16382;59.942;30.472;2023-04-29T05:00:15;1.27;;;1.00;;
29402;SDS011;16382;59.942;30.472;2023-04-29T05:02:43;0.90;;;0.90;;
29402;SDS011;16382;59.942;30.472;2023-04-29T05:05:11;2.75;;;1.10;;
29402;SDS011;16382;59.942;30.472;2023-04-29T05:07:40;2.45;;;1.45;;
29402;SDS011;16382;59.942;30.472;2023-04-29T05:10:08;1.40;;;0.93;;
29402;SDS011;16382;59.942;30.472;2023-04-29T05:12:47;1.13;;;0.90;;
29402;SDS011;16382;59.942;30.472;2023-04-29T05:15:15;1.25;;;1.10;;
29402;SDS011;16382;59.942;30.472;2023-04-29T05:17:45;0.80;;;0.77;;
29402;SDS011;16382;59.942;30.472;2023-04-29T05:20:13;1.27;;;0.90;;
29402;SDS011;16382;59.942;30.472;2023-04-29T05:22:43;1.08;;;0.90;;
29402;SDS011;16382;59.942;30.472;2023-04-29T05:25:39;2.17;;;1.38;;
29402;SDS011;16382;59.942;30.472;2023-04-29T05:28:14;2.22;;;1.20;;
29402;SDS011;16382;59.942;30.472;2023-04-29T05:30:41;3.67;;;1.27;;
29402;SDS011;16382;59.942;30.472;2023-04-29T05:33:09;1.88;;;1.17;;
29402;SDS011;16382;59.942;30.472;2023-04-29T05:35:38;2.60;;;1.00;;
29402;SDS011;16382;59.942;30.472;2023-04-29T05:38:05;1.52;;;0.82;;
29402;SDS011;16382;59.942;30.472;2023-04-29T05:40:40;5.22;;;1.23;;
29402;SDS011;16382;59.942;30.472;2023-04-29T05:43:27;3.05;;;0.85;;
29402;SDS011;16382;59.942;30.472;2023-04-29T05:45:56;3.05;;;1.50;;
29402;SDS011;16382;59.942;30.472;2023-04-29T05:48:23;1.50;;;1.40;;
29402;SDS011;16382;59.942;30.472;2023-04-29T05:50:51;3.58;;;1.20;;
29402;SDS011;16382;59.942;30.472;2023-04-29T05:53:19;1.75;;;1.65;;
29402;SDS011;16382;59.942;30.472;2023-04-29T05:55:47;4.13;;;1.27;;
29402;SDS011;16382;59.942;30.472;2023-04-29T05:58:16;4.18;;;1.92;;
29402;SDS011;16382;59.942;30.472;2023-04-29T06:00:44;3.25;;;1.48;;
29402;SDS011;16382;59.942;30.472;2023-04-29T06:03:19;1.60;;;1.50;;
29402;SDS011;16382;59.942;30.472;2023-04-29T06:05:51;1.70;;;1.60;;
29402;SDS011;16382;59.942;30.472;2023-04-29T06:08:39;1.77;;;1.65;;
29402;SDS011;16382;59.942;30.472;2023-04-29T06:11:15;11.02;;;2.22;;
29402;SDS011;16382;59.942;30.472;2023-04-29T06:13:42;3.65;;;1.67;;
29402;SDS011;16382;59.942;30.472;2023-04-29T06:16:11;3.63;;;1.85;;
29402;SDS011;16382;59.942;30.472;2023-04-29T06:18:39;2.15;;;1.92;;
29402;SDS011;16382;59.942;30.472;2023-04-29T06:21:06;2.53;;;1.73;;
29402;SDS011;16382;59.942;30.472;2023-04-29T06:23:35;3.97;;;1.50;;
29402;SDS011;16382;59.942;30.472;2023-04-29T06:26:09;3.53;;;1.55;;
29402;SDS011;16382;59.942;30.472;2023-04-29T06:28:36;1.65;;;1.20;;
29402;SDS011;16382;59.942;30.472;2023-04-29T06:31:04;1.90;;;1.20;;
29402;SDS011;16382;59.942;30.472;2023-04-29T06:33:33;2.85;;;1.55;;
29402;SDS011;16382;59.942;30.472;2023-04-29T06:36:00;3.92;;;1.30;;
29402;SDS011;16382;59.942;30.472;2023-04-29T06:38:47;2.72;;;1.50;;
29402;SDS011;16382;59.942;30.472;2023-04-29T06:41:31;3.03;;;1.55;;
29402;SDS011;16382;59.942;30.472;2023-04-29T06:44:33;2.70;;;1.50;;
29402;SDS011;16382;59.942;30.472;2023-04-29T06:47:18;2.25;;;1.50;;
29402;SDS011;16382;59.942;30.472;2023-04-29T06:50:06;4.20;;;1.95;;
29402;SDS011;16382;59.942;30.472;2023-04-29T06:52:34;6.85;;;1.75;;
29402;SDS011;16382;59.942;30.472;2023-04-29T06:55:02;4.00;;;2.05;;
29402;SDS011;16382;59.942;30.472;2023-04-29T06:57:30;2.90;;;2.22;;
29402;SDS011;16382;59.942;30.472;2023-04-29T06:59:59;6.18;;;2.58;;
29402;SDS011;16382;59.942;30.472;2023-04-29T07:02:30;3.20;;;1.95;;
29402;SDS011;16382;59.942;30.472;2023-04-29T07:04:58;2.38;;;1.75;;
29402;SDS011;16382;59.942;30.472;2023-04-29T07:10:21;1.88;;;1.77;;
29402;SDS011;16382;59.942;30.472;2023-04-29T07:12:48;10.10;;;2.38;;
29402;SDS011;16382;59.942;30.472;2023-04-29T07:15:16;1.83;;;1.73;;
29402;SDS011;16382;59.942;30.472;2023-04-29T07:17:43;4.60;;;2.05;;
29402;SDS011;16382;59.942;30.472;2023-04-29T07:20:11;2.85;;;1.60;;
29402;SDS011;16382;59.942;30.472;2023-04-29T07:22:39;8.57;;;1.80;;
29402;SDS011;16382;59.942;30.472;2023-04-29T07:25:08;5.93;;;2.20;;
29402;SDS011;16382;59.942;30.472;2023-04-29T07:27:36;3.50;;;2.03;;
29402;SDS011;16382;59.942;30.472;2023-04-29T07:30:07;2.65;;;1.55;;
29402;SDS011;16382;59.942;30.472;2023-04-29T07:32:34;1.38;;;1.27;;
29402;SDS011;16382;59.942;30.472;2023-04-29T07:35:04;1.52;;;1.20;;
29402;SDS011;16382;59.942;30.472;2023-04-29T07:37:33;4.15;;;1.38;;
29402;SDS011;16382;59.942;30.472;2023-04-29T07:40:00;6.28;;;2.30;;
29402;SDS011;16382;59.942;30.472;2023-04-29T07:42:31;4.97;;;2.78;;
29402;SDS011;16382;59.942;30.472;2023-04-29T07:44:58;5.60;;;2.50;;
29402;SDS011;16382;59.942;30.472;2023-04-29T07:47:28;4.97;;;2.80;;
29402;SDS011;16382;59.942;30.472;2023-04-29T07:49:56;5.82;;;1.75;;
29402;SDS011;16382;59.942;30.472;2023-04-29T07:52:23;4.22;;;2.40;;
29402;SDS011;16382;59.942;30.472;2023-04-29T07:54:53;7.32;;;2.60;;
29402;SDS011;16382;59.942;30.472;2023-04-29T07:57:21;6.93;;;2.92;;
29402;SDS011;16382;59.942;30.472;2023-04-29T07:59:51;2.85;;;2.15;;
29402;SDS011;16382;59.942;30.472;2023-04-29T08:02:19;4.10;;;2.17;;
29402;SDS011;16382;59.942;30.472;2023-04-29T08:04:47;11.82;;;2.03;;
29402;SDS011;16382;59.942;30.472;2023-04-29T08:07:16;2.65;;;1.50;;
29402;SDS011;16382;59.942;30.472;2023-04-29T08:09:43;1.65;;;1.13;;
29402;SDS011;16382;59.942;30.472;2023-04-29T08:12:11;1.88;;;0.90;;
29402;SDS011;16382;59.942;30.472;2023-04-29T08:14:39;1.02;;;0.80;;
29402;SDS011;16382;59.942;30.472;2023-04-29T08:17:08;4.78;;;1.33;;
29402;SDS011;16382;59.942;30.472;2023-04-29T08:19:36;1.52;;;1.17;;
29402;SDS011;16382;59.942;30.472;2023-04-29T08:22:03;2.45;;;1.27;;
29402;SDS011;16382;59.942;30.472;2023-04-29T08:24:31;1.73;;;1.13;;
29402;SDS011;16382;59.942;30.472;2023-04-29T08:26:59;5.40;;;1.00;;
29402;SDS011;16382;59.942;30.472;2023-04-29T08:29:29;4.75;;;0.90;;
29402;SDS011;16382;59.942;30.472;2023-04-29T08:31:57;1.98;;;0.60;;
29402;SDS011;16382;59.942;30.472;2023-04-29T08:34:27;0.82;;;0.63;;
29402;SDS011;16382;59.942;30.472;2023-04-29T08:36:55;0.93;;;0.50;;
29402;SDS011;16382;59.942;30.472;2023-04-29T08:39:23;0.68;;;0.52;;
29402;SDS011;16382;59.942;30.472;2023-04-29T08:41:50;0.68;;;0.47;;
29402;SDS011;16382;59.942;30.472;2023-04-29T08:44:22;1.40;;;0.40;;
29402;SDS011;16382;59.942;30.472;2023-04-29T08:46:51;0.43;;;0.40;;
29402;SDS011;16382;59.942;30.472;2023-04-29T08:49:18;2.17;;;0.70;;
29402;SDS011;16382;59.942;30.472;2023-04-29T08:51:51;0.93;;;0.55;;
29402;SDS011;16382;59.942;30.472;2023-04-29T08:54:18;1.35;;;0.75;;
29402;SDS011;16382;59.942;30.472;2023-04-29T08:56:46;2.20;;;0.63;;
29402;SDS011;16382;59.942;30.472;2023-04-29T08:59:14;2.47;;;0.70;;
29402;SDS011;16382;59.942;30.472;2023-04-29T09:01:44;1.45;;;0.93;;
29402;SDS011;16382;59.942;30.472;2023-04-29T09:04:19;3.13;;;1.55;;
29402;SDS011;16382;59.942;30.472;2023-04-29T09:06:58;3.45;;;2.17;;
29402;SDS011;16382;59.942;30.472;2023-04-29T09:09:25;1.40;;;1.30;;
29402;SDS011;16382;59.942;30.472;2023-04-29T09:11:54;1.95;;;1.15;;
29402;SDS011;16382;59.942;30.472;2023-04-29T09:14:24;1.20;;;1.10;;
29402;SDS011;16382;59.942;30.472;2023-04-29T09:16:51;0.90;;;0.90;;
29402;SDS011;16382;59.942;30.472;2023-04-29T09:19:28;3.83;;;1.17;;
29402;SDS011;16382;59.942;30.472;2023-04-29T09:21:58;1.88;;;1.33;;
29402;SDS011;16382;59.942;30.472;2023-04-29T09:24:26;3.10;;;1.17;;
29402;SDS011;16382;59.942;30.472;2023-04-29T09:26:54;3.08;;;0.70;;
29402;SDS011;16382;59.942;30.472;2023-04-29T09:29:23;0.80;;;0.80;;
29402;SDS011;16382;59.942;30.472;2023-04-29T09:31:52;0.60;;;0.60;;
29402;SDS011;16382;59.942;30.472;2023-04-29T09:34:29;0.60;;;0.60;;
29402;SDS011;16382;59.942;30.472;2023-04-29T09:36:59;3.10;;;0.50;;
29402;SDS011;16382;59.942;30.472;2023-04-29T09:39:26;0.80;;;0.57;;
29402;SDS011;16382;59.942;30.472;2023-04-29T09:42:04;1.70;;;0.88;;
29402;SDS011;16382;59.942;30.472;2023-04-29T09:44:33;1.85;;;0.70;;
29402;SDS011;16382;59.942;30.472;2023-04-29T09:47:02;0.47;;;0.47;;
29402;SDS011;16382;59.942;30.472;2023-04-29T09:49:31;8.35;;;1.10;;
29402;SDS011;16382;59.942;30.472;2023-04-29T09:52:03;0.80;;;0.80;;
29402;SDS011;16382;59.942;30.472;2023-04-29T09:54:33;1.27;;;1.17;;
29402;SDS011;16382;59.942;30.472;2023-04-29T09:57:01;1.30;;;0.95;;
29402;SDS011;16382;59.942;30.472;2023-04-29T09:59:31;0.95;;;0.60;;
29402;SDS011;16382;59.942;30.472;2023-04-29T10:02:01;0.60;;;0.57;;
29402;SDS011;16382;59.942;30.472;2023-04-29T10:04:40;0.77;;;0.70;;
29402;SDS011;16382;59.942;30.472;2023-04-29T10:07:14;1.50;;;0.52;;
29402;SDS011;16382;59.942;30.472;2023-04-29T10:09:42;0.80;;;0.57;;
29402;SDS011;16382;59.942;30.472;2023-04-29T10:12:10;1.00;;;0.60;;
29402;SDS011;16382;59.942;30.472;2023-04-29T10:14:47;1.67;;;0.50;;
29402;SDS011;16382;59.942;30.472;2023-04-29T10:17:21;2.72;;;0.50;;
29402;SDS011;16382;59.942;30.472;2023-04-29T10:19:56;0.55;;;0.50;;
29402;SDS011;16382;59.942;30.472;2023-04-29T10:22:34;2.50;;;0.80;;
29402;SDS011;16382;59.942;30.472;2023-04-29T10:25:09;1.10;;;0.65;;
29402;SDS011;16382;59.942;30.472;2023-04-29T10:27:37;0.75;;;0.70;;
29402;SDS011;16382;59.942;30.472;2023-04-29T10:30:08;1.20;;;1.10;;
29402;SDS011;16382;59.942;30.472;2023-04-29T10:32:39;6.20;;;1.00;;
29402;SDS011;16382;59.942;30.472;2023-04-29T10:35:07;3.45;;;0.80;;
29402;SDS011;16382;59.942;30.472;2023-04-29T10:37:37;5.63;;;1.10;;
29402;SDS011;16382;59.942;30.472;2023-04-29T10:40:08;4.00;;;0.80;;
29402;SDS011;16382;59.942;30.472;2023-04-29T10:42:42;2.90;;;0.75;;
29402;SDS011;16382;59.942;30.472;2023-04-29T10:45:21;2.75;;;0.90;;
29402;SDS011;16382;59.942;30.472;2023-04-29T10:48:09;2.30;;;0.63;;
29402;SDS011;16382;59.942;30.472;2023-04-29T10:53:29;4.20;;;0.88;;
29402;SDS011;16382;59.942;30.472;2023-04-29T10:55:58;4.25;;;0.80;;
29402;SDS011;16382;59.942;30.472;2023-04-29T10:58:41;3.67;;;1.08;;
29402;SDS011;16382;59.942;30.472;2023-04-29T11:01:10;4.40;;;0.70;;
29402;SDS011;16382;59.942;30.472;2023-04-29T11:03:45;1.88;;;0.80;;
29402;SDS011;16382;59.942;30.472;2023-04-29T11:06:21;5.93;;;1.10;;
29402;SDS011;16382;59.942;30.472;2023-04-29T11:08:59;6.68;;;0.70;;
29402;SDS011;16382;59.942;30.472;2023-04-29T11:11:39;1.85;;;0.88;;
29402;SDS011;16382;59.942;30.472;2023-04-29T11:14:08;2.15;;;0.85;;
29402;SDS011;16382;59.942;30.472;2023-04-29T11:16:36;1.05;;;0.75;;
29402;SDS011;16382;59.942;30.472;2023-04-29T11:19:05;2.35;;;0.90;;
29402;SDS011;16382;59.942;30.472;2023-04-29T11:21:34;2.85;;;0.90;;
29402;SDS011;16382;59.942;30.472;2023-04-29T11:24:04;5.07;;;1.00;;
29402;SDS011;16382;59.942;30.472;2023-04-29T11:26:33;0.93;;;0.73;;
29402;SDS011;16382;59.942;30.472;2023-04-29T11:29:00;2.13;;;1.13;;
29402;SDS011;16382;59.942;30.472;2023-04-29T11:31:29;5.47;;;1.10;;
29402;SDS011;16382;59.942;30.472;2023-04-29T11:33:57;2.22;;;0.98;;
29402;SDS011;16382;59.942;30.472;2023-04-29T11:36:24;1.50;;;1.10;;
29402;SDS011;16382;59.942;30.472;2023-04-29T11:38:52;2.25;;;1.02;;
29402;SDS011;16382;59.942;30.472;2023-04-29T11:41:21;3.03;;;1.35;;
29402;SDS011;16382;59.942;30.472;2023-04-29T11:43:53;1.98;;;1.38;;
29402;SDS011;16382;59.942;30.472;2023-04-29T11:46:24;5.07;;;1.38;;
29402;SDS011;16382;59.942;30.472;2023-04-29T11:48:56;2.35;;;0.90;;
29402;SDS011;16382;59.942;30.472;2023-04-29T11:51:25;2.05;;;1.15;;
29402;SDS011;16382;59.942;30.472;2023-04-29T11:53:53;2.40;;;1.10;;
29402;SDS011;16382;59.942;30.472;2023-04-29T11:56:23;1.52;;;1.10;;
29402;SDS011;16382;59.942;30.472;2023-04-29T11:58:54;4.35;;;1.00;;
29402;SDS011;16382;59.942;30.472;2023-04-29T12:01:22;3.13;;;1.10;;
29402;SDS011;16382;59.942;30.472;2023-04-29T12:03:55;0.98;;;0.98;;
29402;SDS011;16382;59.942;30.472;2023-04-29T12:06:26;2.63;;;0.90;;
29402;SDS011;16382;59.942;30.472;2023-04-29T12:08:57;2.88;;;1.27;;
29402;SDS011;16382;59.942;30.472;2023-04-29T12:11:27;4.75;;;1.02;;
29402;SDS011;16382;59.942;30.472;2023-04-29T12:13:54;8.90;;;1.17;;
29402;SDS011;16382;59.942;30.472;2023-04-29T12:16:22;11.25;;;1.45;;
29402;SDS011;16382;59.942;30.472;2023-04-29T12:18:51;5.38;;;1.10;;
29402;SDS011;16382;59.942;30.472;2023-04-29T12:21:20;3.05;;;1.02;;
29402;SDS011;16382;59.942;30.472;2023-04-29T12:23:49;1.88;;;1.02;;
29402;SDS011;16382;59.942;30.472;2023-04-29T12:26:17;2.65;;;1.08;;
29402;SDS011;16382;59.942;30.472;2023-04-29T12:28:47;2.53;;;0.95;;
29402;SDS011;16382;59.942;30.472;2023-04-29T12:31:14;3.50;;;1.65;;
29402;SDS011;16382;59.942;30.472;2023-04-29T12:33:53;2.25;;;1.30;;
29402;SDS011;16382;59.942;30.472;2023-04-29T12:36:34;4.88;;;1.02;;
29402;SDS011;16382;59.942;30.472;2023-04-29T12:39:04;1.65;;;1.00;;
29402;SDS011;16382;59.942;30.472;2023-04-29T12:44:04;4.68;;;1.10;;
29402;SDS011;16382;59.942;30.472;2023-04-29T12:46:36;2.80;;;1.00;;
29402;SDS011;16382;59.942;30.472;2023-04-29T12:49:06;2.78;;;0.90;;
29402;SDS011;16382;59.942;30.472;2023-04-29T12:51:33;1.60;;;1.10;;
29402;SDS011;16382;59.942;30.472;2023-04-29T12:54:02;3.03;;;1.35;;
29402;SDS011;16382;59.942;30.472;2023-04-29T12:56:31;1.50;;;0.95;;
29402;SDS011;16382;59.942;30.472;2023-04-29T12:59:05;2.35;;;1.15;;
29402;SDS011;16382;59.942;30.472;2023-04-29T13:01:33;3.95;;;1.17;;
29402;SDS011;16382;59.942;30.472;2023-04-29T13:04:00;3.50;;;0.90;;
29402;SDS011;16382;59.942;30.472;2023-04-29T13:06:30;3.97;;;1.23;;
29402;SDS011;16382;59.942;30.472;2023-04-29T13:08:57;2.75;;;1.70;;
29402;SDS011;16382;59.942;30.472;2023-04-29T13:11:25;3.20;;;1.38;;
29402;SDS011;16382;59.942;30.472;2023-04-29T13:13:52;1.70;;;1.00;;
29402;SDS011;16382;59.942;30.472;2023-04-29T13:16:23;3.10;;;1.10;;
29402;SDS011;16382;59.942;30.472;2023-04-29T13:18:51;1.98;;;0.95;;
29402;SDS011;16382;59.942;30.472;2023-04-29T13:21:18;2.60;;;1.00;;
29402;SDS011;16382;59.942;30.472;2023-04-29T13:23:46;1.92;;;1.10;;
29402;SDS011;16382;59.942;30.472;2023-04-29T13:26:19;2.10;;;0.90;;
29402;SDS011;16382;59.942;30.472;2023-04-29T13:28:50;1.20;;;1.10;;
29402;SDS011;16382;59.942;30.472;2023-04-29T13:31:31;1.42;;;1.33;;
29402;SDS011;16382;59.942;30.472;2023-04-29T13:34:19;3.60;;;1.23;;
29402;SDS011;16382;59.942;30.472;2023-04-29T13:36:49;4.38;;;1.20;;
29402;SDS011;16382;59.942;30.472;2023-04-29T13:39:24;4.15;;;1.30;;
29402;SDS011;16382;59.942;30.472;2023-04-29T13:41:53;2.88;;;1.10;;
29402;SDS011;16382;59.942;30.472;2023-04-29T13:44:25;2.05;;;1.10;;
29402;SDS011;16382;59.942;30.472;2023-04-29T13:47:07;2.70;;;1.30;;
29402;SDS011;16382;59.942;30.472;2023-04-29T13:49:38;3.15;;;1.10;;
29402;SDS011;16382;59.942;30.472;2023-04-29T13:52:09;4.57;;;1.38;;
29402;SDS011;16382;59.942;30.472;2023-04-29T13:54:55;7.65;;;1.20;;
29402;SDS011;16382;59.942;30.472;2023-04-29T13:57:28;1.77;;;1.15;;
29402;SDS011;16382;59.942;30.472;2023-04-29T13:59:56;2.95;;;1.10;;
29402;SDS011;16382;59.942;30.472;2023-04-29T14:02:24;3.03;;;1.20;;
29402;SDS011;16382;59.942;30.472;2023-04-29T14:04:55;3.47;;;1.27;;
29402;SDS011;16382;59.942;30.472;2023-04-29T14:07:22;1.50;;;1.10;;
29402;SDS011;16382;59.942;30.472;2023-04-29T14:09:49;6.20;;;1.40;;
29402;SDS011;16382;59.942;30.472;2023-04-29T14:12:17;4.15;;;1.10;;
29402;SDS011;16382;59.942;30.472;2023-04-29T14:14:44;3.58;;;1.30;;
29402;SDS011;16382;59.942;30.472;2023-04-29T14:17:11;1.27;;;0.80;;
29402;SDS011;16382;59.942;30.472;2023-04-29T14:19:40;1.40;;;1.20;;
29402;SDS011;16382;59.942;30.472;2023-04-29T14:22:08;5.55;;;1.02;;
29402;SDS011;16382;59.942;30.472;2023-04-29T14:24:35;5.50;;;1.10;;
29402;SDS011;16382;59.942;30.472;2023-04-29T14:27:03;4.13;;;1.38;;
29402;SDS011;16382;59.942;30.472;2023-04-29T14:29:31;6.63;;;1.42;;
29402;SDS011;16382;59.942;30.472;2023-04-29T14:31:58;3.22;;;1.23;;
29402;SDS011;16382;59.942;30.472;2023-04-29T14:34:25;4.57;;;1.20;;
29402;SDS011;16382;59.942;30.472;2023-04-29T14:36:54;3.55;;;1.15;;
29402;SDS011;16382;59.942;30.472;2023-04-29T14:39:23;2.17;;;1.17;;
29402;SDS011;16382;59.942;30.472;2023-04-29T14:41:51;2.30;;;1.10;;
29402;SDS011;16382;59.942;30.472;2023-04-29T14:44:18;2.28;;;0.90;;
29402;SDS011;16382;59.942;30.472;2023-04-29T14:46:45;2.45;;;1.17;;
29402;SDS011;16382;59.942;30.472;2023-04-29T14:49:13;3.40;;;1.05;;
29402;SDS011;16382;59.942;30.472;2023-04-29T14:51:40;1.70;;;0.82;;
29402;SDS011;16382;59.942;30.472;2023-04-29T14:54:09;5.20;;;1.02;;
29402;SDS011;16382;59.942;30.472;2023-04-29T14:56:37;2.47;;;1.00;;
29402;SDS011;16382;59.942;30.472;2023-04-29T14:59:04;3.33;;;1.20;;
29402;SDS011;16382;59.942;30.472;2023-04-29T15:01:36;3.97;;;1.52;;
29402;SDS011;16382;59.942;30.472;2023-04-29T15:04:04;3.92;;;1.00;;